createdAt,value
2022-10-03T00:00:03.124Z,1.53
2022-10-03T00:03:25.857Z,1.70
2022-10-03T00:06:15.498Z,1.30
2022-10-03T00:09:19.548Z,1.50
2022-10-03T00:12:19.270Z,2.20
2022-10-03T00:15:12.706Z,1.27
2022-10-03T00:18:10.387Z,1.23
2022-10-03T00:21:10.792Z,1.20
2022-10-03T00:24:07.482Z,1.20
2022-10-03T00:26:53.989Z,1.30
2022-10-03T00:29:51.985Z,1.53
2022-10-03T00:32:56.934Z,1.90
2022-10-03T00:35:54.093Z,2.30
2022-10-03T00:39:02.794Z,2.27
2022-10-03T00:42:17.683Z,2.00
2022-10-03T00:45:36.485Z,2.20
2022-10-03T00:48:46.127Z,2.27
2022-10-03T00:51:46.458Z,1.70
2022-10-03T00:54:45.721Z,1.90
2022-10-03T00:58:00.787Z,1.30
2022-10-03T01:00:52.131Z,1.77
2022-10-03T01:03:47.385Z,1.60
2022-10-03T01:06:42.344Z,1.70
2022-10-03T01:09:40.467Z,1.60
2022-10-03T01:12:50.183Z,1.87
2022-10-03T01:15:48.198Z,1.70
2022-10-03T01:18:46.308Z,1.83
2022-10-03T01:21:41.727Z,1.90
2022-10-03T01:24:55.330Z,1.80
2022-10-03T01:28:01.661Z,1.90
2022-10-03T01:30:52.267Z,1.80
2022-10-03T01:33:43.367Z,2.00
2022-10-03T01:36:33.922Z,1.80
2022-10-03T01:39:25.293Z,1.40
2022-10-03T01:42:17.397Z,1.50
2022-10-03T01:45:13.296Z,2.20
2022-10-03T01:48:03.802Z,2.50
2022-10-03T01:51:04.234Z,2.63
2022-10-03T01:54:08.521Z,3.57
2022-10-03T01:56:59.092Z,3.00
2022-10-03T01:59:47.612Z,2.70
2022-10-03T02:02:38.021Z,1.63
2022-10-03T02:05:38.371Z,1.53
2022-10-03T02:08:30.253Z,2.20
2022-10-03T02:11:29.791Z,1.80
2022-10-03T02:14:24.768Z,2.20
2022-10-03T02:17:16.607Z,2.13
2022-10-03T02:20:08.696Z,2.10
2022-10-03T02:22:56.450Z,1.83
2022-10-03T02:25:55.009Z,2.80
2022-10-03T02:29:07.134Z,2.00
2022-10-03T02:32:13.975Z,2.93
2022-10-03T02:35:37.422Z,1.60
2022-10-03T02:38:49.673Z,2.17
2022-10-03T02:41:52.375Z,1.83
2022-10-03T02:45:03.060Z,1.67
2022-10-03T02:48:30.641Z,1.60
2022-10-03T02:51:37.141Z,1.90
2022-10-03T02:54:50.703Z,2.20
2022-10-03T02:58:17.450Z,1.50
2022-10-03T03:01:28.490Z,1.43
2022-10-03T03:04:41.948Z,1.60
2022-10-03T03:07:38.369Z,1.90
2022-10-03T03:10:38.750Z,1.80
2022-10-03T03:13:51.551Z,1.90
2022-10-03T03:16:49.920Z,2.20
2022-10-03T03:20:13.100Z,1.60
2022-10-03T03:23:12.673Z,1.73
2022-10-03T03:26:15.047Z,1.97
2022-10-03T03:29:10.687Z,1.80
2022-10-03T03:32:03.711Z,2.17
2022-10-03T03:34:59.440Z,2.07
2022-10-03T03:37:53.421Z,1.97
2022-10-03T03:40:46.556Z,1.87
2022-10-03T03:43:44.790Z,1.63
2022-10-03T03:46:47.977Z,1.80
2022-10-03T03:49:53.584Z,1.93
2022-10-03T03:52:53.507Z,2.80
2022-10-03T03:55:56.426Z,1.50
2022-10-03T03:58:42.660Z,1.70
2022-10-03T04:01:49.265Z,1.50
2022-10-03T04:04:53.229Z,1.37
2022-10-03T04:07:52.356Z,2.23
2022-10-03T04:10:49.699Z,2.33
2022-10-03T04:14:03.842Z,1.60
2022-10-03T04:17:37.263Z,1.50
2022-10-03T04:20:35.691Z,2.10
2022-10-03T04:23:34.070Z,1.43
2022-10-03T04:26:33.545Z,1.93
2022-10-03T04:29:41.111Z,2.07
2022-10-03T04:32:47.727Z,2.03
2022-10-03T04:36:07.000Z,2.00
2022-10-03T04:39:00.756Z,3.40
2022-10-03T04:41:53.115Z,1.80
2022-10-03T04:44:51.241Z,2.37
2022-10-03T04:47:46.037Z,2.00
2022-10-03T04:50:38.677Z,1.83
2022-10-03T04:53:41.099Z,2.40
2022-10-03T04:56:39.643Z,1.80
2022-10-03T04:59:49.403Z,2.73
2022-10-03T05:02:47.511Z,2.20
2022-10-03T05:05:51.654Z,1.83
2022-10-03T05:08:42.401Z,1.40
2022-10-03T05:11:39.623Z,2.50
2022-10-03T05:14:33.513Z,2.63
2022-10-03T05:17:24.325Z,3.13
2022-10-03T05:20:24.086Z,2.60
2022-10-03T05:23:20.463Z,2.10
2022-10-03T05:26:43.182Z,2.70
2022-10-03T05:29:25.312Z,2.97
2022-10-03T05:32:21.961Z,2.90
2022-10-03T05:35:29.569Z,3.47
2022-10-03T05:38:37.398Z,3.13
2022-10-03T05:41:26.227Z,3.50
2022-10-03T05:44:26.639Z,3.83
2022-10-03T05:47:27.680Z,3.50
2022-10-03T05:50:42.347Z,3.50
2022-10-03T05:53:54.822Z,3.03
2022-10-03T05:57:01.507Z,2.90
2022-10-03T06:00:12.271Z,3.37
2022-10-03T06:03:31.864Z,4.03
2022-10-03T06:06:24.820Z,3.43
2022-10-03T06:09:39.157Z,2.90
2022-10-03T06:12:31.552Z,2.53
2022-10-03T06:15:35.853Z,2.40
2022-10-03T06:18:51.910Z,1.50
2022-10-03T06:22:26.977Z,1.97
2022-10-03T06:25:46.134Z,1.67
2022-10-03T06:29:00.121Z,1.50
2022-10-03T06:32:14.147Z,1.33
2022-10-03T06:35:33.612Z,1.92
2022-10-03T06:38:58.659Z,1.70
2022-10-03T06:42:15.707Z,1.73
2022-10-03T06:45:39.190Z,1.10
2022-10-03T06:48:44.886Z,1.13
2022-10-03T06:51:52.776Z,1.10
2022-10-03T06:55:14.073Z,1.17
2022-10-03T06:58:20.666Z,1.20
2022-10-03T07:01:34.091Z,0.90
2022-10-03T07:04:44.845Z,1.20
2022-10-03T07:08:07.922Z,1.10
2022-10-03T07:11:06.164Z,1.10
2022-10-03T07:14:16.958Z,1.30
2022-10-03T07:17:28.441Z,1.10
2022-10-03T07:20:34.174Z,1.60
2022-10-03T07:24:03.254Z,1.30
2022-10-03T07:27:09.045Z,1.58
2022-10-03T07:30:06.713Z,1.20
2022-10-03T07:33:27.225Z,1.60
2022-10-03T07:36:50.092Z,1.20
2022-10-03T07:40:03.316Z,1.23
2022-10-03T07:43:21.757Z,1.30
2022-10-03T07:46:35.460Z,1.10
2022-10-03T07:49:43.531Z,1.17
2022-10-03T07:52:54.284Z,1.42
2022-10-03T07:56:08.559Z,1.05
2022-10-03T07:59:05.621Z,1.00
2022-10-03T08:02:09.443Z,0.93
2022-10-03T08:05:12.788Z,0.80
2022-10-03T08:08:21.748Z,0.88
2022-10-03T08:11:28.961Z,1.10
2022-10-03T08:14:24.616Z,1.02
2022-10-03T08:17:32.640Z,0.93
2022-10-03T08:20:41.048Z,0.90
2022-10-03T08:23:54.551Z,1.00
2022-10-03T08:27:04.233Z,0.80
2022-10-03T08:30:15.492Z,0.93
2022-10-03T08:33:27.879Z,1.08
2022-10-03T08:36:46.754Z,1.00
2022-10-03T08:39:58.976Z,1.10
2022-10-03T08:43:20.826Z,1.27
2022-10-03T08:46:28.400Z,1.38
2022-10-03T08:49:30.752Z,1.35
2022-10-03T08:52:32.912Z,1.40
2022-10-03T08:55:45.678Z,1.10
2022-10-03T08:59:17.176Z,1.60
2022-10-03T09:02:44.112Z,1.40
2022-10-03T09:06:01.394Z,0.98
2022-10-03T09:09:03.717Z,1.45
2022-10-03T09:12:09.852Z,1.23
2022-10-03T09:15:30.817Z,1.20
2022-10-03T09:18:51.317Z,0.80
2022-10-03T09:22:14.051Z,1.20
2022-10-03T09:25:22.963Z,0.95
2022-10-03T09:28:37.346Z,1.15
2022-10-03T09:31:45.373Z,1.67
2022-10-03T09:35:09.826Z,0.93
2022-10-03T09:38:28.702Z,1.73
2022-10-03T09:41:42.296Z,1.10
2022-10-03T09:45:10.229Z,1.30
2022-10-03T09:48:31.455Z,1.47
2022-10-03T09:51:27.002Z,1.70
2022-10-03T09:54:51.847Z,2.08
2022-10-03T09:58:23.596Z,1.00
2022-10-03T10:01:22.137Z,2.20
2022-10-03T10:04:54.309Z,4.05
2022-10-03T10:08:17.083Z,4.70
2022-10-03T10:11:32.971Z,3.60
2022-10-03T10:15:11.360Z,2.13
2022-10-03T10:18:34.603Z,2.07
2022-10-03T10:22:09.408Z,2.40
2022-10-03T10:25:33.406Z,2.20
2022-10-03T10:29:01.154Z,2.25
2022-10-03T10:32:21.940Z,1.88
2022-10-03T10:35:30.841Z,2.00
2022-10-03T10:38:28.914Z,2.30
2022-10-03T10:42:02.691Z,1.90
2022-10-03T10:45:31.176Z,1.70
2022-10-03T10:49:03.717Z,2.00
2022-10-03T10:52:42.031Z,1.35
2022-10-03T10:56:19.352Z,1.30
2022-10-03T10:59:47.534Z,1.40
2022-10-03T11:03:07.823Z,1.23
2022-10-03T11:06:37.158Z,1.45
2022-10-03T11:09:54.173Z,1.27
2022-10-03T11:13:14.169Z,1.27
2022-10-03T11:16:40.675Z,1.65
2022-10-03T11:20:10.701Z,1.38
2022-10-03T11:23:40.158Z,1.83
2022-10-03T11:26:59.391Z,2.17
2022-10-03T11:30:18.400Z,2.20
2022-10-03T11:33:47.830Z,2.33
2022-10-03T11:37:07.407Z,2.03
2022-10-03T11:40:01.052Z,2.00
2022-10-03T11:42:58.597Z,1.45
2022-10-03T11:45:48.942Z,1.00
2022-10-03T11:48:41.787Z,1.25
2022-10-03T11:51:40.793Z,1.10
2022-10-03T11:54:32.430Z,1.38
2022-10-03T11:57:23.298Z,1.30
2022-10-03T12:00:17.715Z,1.15
2022-10-03T12:03:22.915Z,1.35
2022-10-03T12:06:30.605Z,1.48
2022-10-03T12:09:24.394Z,1.45
2022-10-03T12:12:16.372Z,1.15
2022-10-03T12:15:11.464Z,1.30
2022-10-03T12:18:04.717Z,1.15
2022-10-03T12:21:04.698Z,1.10
2022-10-03T12:24:18.384Z,0.88
2022-10-03T12:27:13.163Z,0.93
2022-10-03T12:29:59.996Z,1.27
2022-10-03T12:32:58.858Z,0.98
2022-10-03T12:35:52.272Z,0.82
2022-10-03T12:38:55.050Z,0.90
2022-10-03T12:41:56.252Z,1.40
2022-10-03T12:44:51.945Z,1.00
2022-10-03T12:48:00.688Z,1.00
2022-10-03T12:50:55.205Z,1.10
2022-10-03T12:53:51.982Z,1.10
2022-10-03T12:56:46.650Z,1.00
2022-10-03T12:59:38.425Z,1.00
2022-10-03T13:02:28.038Z,1.13
2022-10-03T13:05:33.489Z,1.10
2022-10-03T13:08:40.514Z,0.97
2022-10-03T13:11:33.501Z,1.00
2022-10-03T13:14:43.580Z,1.20
2022-10-03T13:17:36.243Z,1.30
2022-10-03T13:20:30.141Z,1.10
2022-10-03T13:23:24.693Z,1.20
2022-10-03T13:26:18.459Z,1.40
2022-10-03T13:29:25.452Z,1.00
2022-10-03T13:32:18.590Z,1.15
2022-10-03T13:35:49.396Z,1.40
2022-10-03T13:39:02.719Z,1.05
2022-10-03T13:42:04.625Z,1.40
2022-10-03T13:44:54.578Z,0.90
2022-10-03T13:47:48.126Z,1.37
2022-10-03T13:50:42.364Z,1.03
2022-10-03T13:53:45.222Z,1.00
2022-10-03T13:56:51.360Z,1.90
2022-10-03T13:59:48.699Z,1.10
2022-10-03T14:02:52.333Z,1.17
2022-10-03T14:06:01.397Z,1.40
2022-10-03T14:09:17.756Z,1.67
2022-10-03T14:12:24.639Z,1.40
2022-10-03T14:15:25.920Z,0.90
2022-10-03T14:18:21.547Z,1.20
2022-10-03T14:21:27.107Z,1.10
2022-10-03T14:24:27.453Z,1.50
2022-10-03T14:27:36.818Z,1.20
2022-10-03T14:30:23.244Z,1.30
2022-10-03T14:33:18.634Z,1.67
2022-10-03T14:36:23.199Z,1.83
2022-10-03T14:39:23.840Z,1.92
2022-10-03T14:42:51.494Z,1.93
2022-10-03T14:45:44.215Z,1.48
2022-10-03T14:48:31.440Z,1.48
2022-10-03T14:51:20.880Z,1.70
2022-10-03T14:54:08.652Z,1.73
2022-10-03T14:56:53.790Z,1.77
2022-10-03T14:59:37.811Z,1.60
2022-10-03T15:02:30.800Z,1.40
2022-10-03T15:05:21.822Z,1.08
2022-10-03T15:08:16.186Z,1.07
2022-10-03T15:11:00.583Z,0.80
2022-10-03T15:13:48.511Z,0.93
2022-10-03T15:16:36.028Z,0.90
2022-10-03T15:19:26.173Z,0.70
2022-10-03T15:22:24.561Z,1.08
2022-10-03T15:25:15.033Z,0.80
2022-10-03T15:28:04.764Z,0.97
2022-10-03T15:30:50.936Z,0.90
2022-10-03T15:33:37.226Z,0.80
2022-10-03T15:36:26.322Z,0.80
2022-10-03T15:39:21.198Z,0.80
2022-10-03T15:42:22.956Z,1.07
2022-10-03T15:45:08.455Z,0.93
2022-10-03T15:47:53.143Z,1.00
2022-10-03T15:50:43.655Z,0.93
2022-10-03T15:53:36.570Z,1.07
2022-10-03T15:56:27.488Z,1.10
2022-10-03T15:59:20.611Z,0.90
2022-10-03T16:02:10.692Z,0.90
2022-10-03T16:04:57.306Z,1.03
2022-10-03T16:07:52.354Z,1.10
2022-10-03T16:10:40.395Z,0.90
2022-10-03T16:13:36.106Z,1.13
2022-10-03T16:16:24.297Z,1.00
2022-10-03T16:19:33.526Z,1.00
2022-10-03T16:22:23.861Z,1.10
2022-10-03T16:25:15.294Z,0.83
2022-10-03T16:28:06.410Z,0.70
2022-10-03T16:30:58.585Z,0.70
2022-10-03T16:33:48.438Z,0.90
2022-10-03T16:36:34.634Z,0.60
2022-10-03T16:39:25.316Z,0.80
2022-10-03T16:42:18.714Z,0.83
2022-10-03T16:45:05.180Z,0.80
2022-10-03T16:48:11.360Z,0.60
2022-10-03T16:50:54.399Z,0.80
2022-10-03T16:53:44.360Z,0.80
2022-10-03T16:56:34.320Z,1.13
2022-10-03T16:59:20.618Z,0.80
2022-10-03T17:02:08.143Z,0.90
2022-10-03T17:04:56.254Z,0.83
2022-10-03T17:07:43.677Z,0.80
2022-10-03T17:10:37.454Z,0.60
2022-10-03T17:13:24.524Z,0.77
2022-10-03T17:16:15.828Z,0.83
2022-10-03T17:19:16.154Z,0.90
2022-10-03T17:22:07.117Z,0.97
2022-10-03T17:24:57.393Z,0.93
2022-10-03T17:27:43.385Z,0.90
2022-10-03T17:30:34.322Z,0.80
2022-10-03T17:33:24.224Z,1.20
2022-10-03T17:36:40.361Z,1.00
2022-10-03T17:39:38.684Z,1.13
2022-10-03T17:42:40.752Z,1.00
2022-10-03T17:45:34.562Z,2.90
2022-10-03T17:48:21.105Z,1.33
2022-10-03T17:51:31.570Z,1.70
2022-10-03T17:54:20.905Z,1.47
2022-10-03T17:57:11.097Z,1.60
2022-10-03T18:00:02.301Z,1.30
2022-10-03T18:02:56.964Z,1.07
2022-10-03T18:05:45.002Z,1.20
2022-10-03T18:08:31.257Z,1.83
2022-10-03T18:11:23.470Z,1.13
2022-10-03T18:14:17.702Z,1.20
2022-10-03T18:17:08.396Z,1.13
2022-10-03T18:20:06.115Z,1.73
2022-10-03T18:22:56.777Z,1.30
2022-10-03T18:26:19.661Z,1.83
2022-10-03T18:29:22.454Z,1.03
2022-10-03T18:32:15.035Z,1.00
2022-10-03T18:35:10.894Z,1.37
2022-10-03T18:38:02.035Z,1.10
2022-10-03T18:40:51.776Z,1.20
2022-10-03T18:43:44.909Z,0.97
2022-10-03T18:46:35.166Z,1.00
2022-10-03T18:49:39.632Z,0.90
2022-10-03T18:52:31.204Z,0.80
2022-10-03T18:55:21.125Z,0.90
2022-10-03T18:58:15.240Z,1.20
2022-10-03T19:01:04.907Z,1.03
2022-10-03T19:03:53.932Z,0.90
2022-10-03T19:06:42.549Z,1.07
2022-10-03T19:09:31.004Z,1.00
2022-10-03T19:12:19.863Z,0.80
2022-10-03T19:15:20.032Z,0.90
2022-10-03T19:18:16.480Z,1.00
2022-10-03T19:21:05.894Z,0.97
2022-10-03T19:23:59.003Z,1.03
2022-10-03T19:26:47.481Z,1.00
2022-10-03T19:29:36.059Z,1.20
2022-10-03T19:32:25.368Z,1.10
2022-10-03T19:35:15.393Z,1.23
2022-10-03T19:38:05.613Z,0.87
2022-10-03T19:40:55.921Z,1.00
2022-10-03T19:43:44.917Z,0.93
2022-10-03T19:46:52.216Z,1.00
2022-10-03T19:49:57.716Z,1.10
2022-10-03T19:52:41.991Z,1.23
2022-10-03T19:55:34.250Z,1.30
2022-10-03T19:58:23.981Z,1.57
2022-10-03T20:01:10.128Z,1.90
2022-10-03T20:03:57.991Z,1.23
2022-10-03T20:07:01.099Z,1.50
2022-10-03T20:09:58.043Z,1.60
2022-10-03T20:12:49.304Z,1.57
2022-10-03T20:15:41.986Z,1.50
2022-10-03T20:18:30.927Z,1.50
2022-10-03T20:21:20.000Z,2.20
2022-10-03T20:24:12.519Z,1.53
2022-10-03T20:27:03.910Z,1.40
2022-10-03T20:30:00.458Z,1.20
2022-10-03T20:32:46.976Z,1.13
2022-10-03T20:35:37.804Z,1.27
2022-10-03T20:38:31.791Z,1.30
2022-10-03T20:41:21.052Z,1.20
2022-10-03T20:44:16.604Z,1.40
2022-10-03T20:47:07.526Z,1.30
2022-10-03T20:49:56.314Z,1.10
2022-10-03T20:52:40.437Z,1.50
2022-10-03T20:55:26.685Z,1.40
2022-10-03T20:58:26.611Z,1.30
2022-10-03T21:01:20.139Z,1.40
2022-10-03T21:04:15.207Z,1.30
2022-10-03T21:07:05.180Z,1.57
2022-10-03T21:09:57.378Z,1.00
2022-10-03T21:12:47.195Z,1.60
2022-10-03T21:15:40.703Z,1.40
2022-10-03T21:18:26.774Z,1.40
2022-10-03T21:21:17.203Z,1.50
2022-10-03T21:24:07.643Z,1.80
2022-10-03T21:26:58.484Z,1.40
2022-10-03T21:29:54.938Z,1.60
2022-10-03T21:32:57.558Z,1.63
2022-10-03T21:35:43.227Z,1.43
2022-10-03T21:38:31.028Z,1.67
2022-10-03T21:41:25.299Z,1.53
2022-10-03T21:44:18.152Z,1.27
2022-10-03T21:47:19.809Z,1.70
2022-10-03T21:50:07.367Z,1.37
2022-10-03T21:53:15.650Z,1.50
2022-10-03T21:56:22.413Z,1.30
2022-10-03T21:59:30.925Z,1.70
2022-10-03T22:02:25.156Z,1.60
2022-10-03T22:05:18.016Z,1.47
2022-10-03T22:08:13.859Z,1.43
2022-10-03T22:11:06.486Z,1.40
2022-10-03T22:14:00.567Z,1.20
2022-10-03T22:16:50.536Z,1.40
2022-10-03T22:19:40.089Z,1.40
2022-10-03T22:22:38.704Z,1.00
2022-10-03T22:25:42.486Z,1.23
2022-10-03T22:28:38.773Z,1.40
2022-10-03T22:31:31.449Z,1.30
2022-10-03T22:34:28.980Z,1.20
2022-10-03T22:37:14.442Z,1.30
2022-10-03T22:40:00.485Z,1.17
2022-10-03T22:42:47.291Z,1.70
2022-10-03T22:45:34.445Z,1.50
2022-10-03T22:48:23.999Z,1.97
2022-10-03T22:51:13.084Z,1.33
2022-10-03T22:54:03.950Z,1.40
2022-10-03T22:56:53.886Z,1.70
2022-10-03T22:59:43.837Z,1.50
2022-10-03T23:02:29.401Z,2.10
2022-10-03T23:05:19.492Z,1.40
2022-10-03T23:08:09.978Z,1.70
2022-10-03T23:11:00.205Z,1.53
2022-10-03T23:13:45.665Z,1.43
2022-10-03T23:16:48.775Z,1.53
2022-10-03T23:19:46.600Z,1.63
2022-10-03T23:22:35.667Z,1.10
2022-10-03T23:25:24.335Z,1.30
2022-10-03T23:28:20.270Z,1.40
2022-10-03T23:31:05.838Z,1.50
2022-10-03T23:33:51.412Z,1.70
2022-10-03T23:36:35.133Z,1.30
2022-10-03T23:39:33.270Z,1.60
2022-10-03T23:42:20.484Z,1.40
2022-10-03T23:45:13.934Z,1.40
2022-10-03T23:48:02.647Z,1.77
2022-10-03T23:50:51.300Z,1.40
2022-10-03T23:53:40.279Z,1.60
2022-10-03T23:56:32.088Z,1.40
2022-10-03T23:59:25.638Z,1.33
